createdAt,value
2017-12-25T00:01:56.962Z,9.00
2017-12-25T00:04:26.118Z,9.00
2017-12-25T00:06:54.458Z,9.00
2017-12-25T00:09:22.718Z,9.00
2017-12-25T00:11:51.753Z,9.10
2017-12-25T00:14:19.999Z,9.00
2017-12-25T00:16:48.394Z,9.00
2017-12-25T00:19:16.650Z,9.00
2017-12-25T00:21:45.728Z,9.00
2017-12-25T00:24:13.958Z,9.00
2017-12-25T00:26:42.225Z,9.00
2017-12-25T00:29:10.474Z,9.00
2017-12-25T00:31:40.285Z,9.00
2017-12-25T00:34:08.500Z,9.00
2017-12-25T00:36:37.530Z,9.00
2017-12-25T00:39:06.019Z,9.00
2017-12-25T00:41:34.281Z,9.00
2017-12-25T00:44:02.587Z,9.00
2017-12-25T00:46:30.850Z,9.00
2017-12-25T00:48:59.087Z,8.90
2017-12-25T00:51:27.355Z,8.90
2017-12-25T00:53:55.611Z,8.90
2017-12-25T00:56:24.033Z,8.90
2017-12-25T00:58:52.395Z,8.80
2017-12-25T01:01:20.796Z,8.90
2017-12-25T01:03:49.282Z,8.90
2017-12-25T01:06:17.658Z,8.80
2017-12-25T01:08:46.269Z,8.80
2017-12-25T01:11:14.768Z,8.90
2017-12-25T01:13:43.086Z,8.80
2017-12-25T01:16:11.339Z,8.80
2017-12-25T01:18:40.367Z,8.80
2017-12-25T01:21:08.619Z,8.80
2017-12-25T01:23:37.659Z,8.90
2017-12-25T01:26:05.910Z,8.90
2017-12-25T01:28:34.924Z,8.90
2017-12-25T01:31:03.314Z,8.90
2017-12-25T01:33:31.574Z,8.90
2017-12-25T01:35:59.816Z,8.80
2017-12-25T01:38:28.882Z,8.80
2017-12-25T01:40:57.171Z,8.80
2017-12-25T01:43:25.422Z,8.80
2017-12-25T01:45:53.671Z,8.80
2017-12-25T01:48:21.926Z,8.90
2017-12-25T01:50:50.180Z,8.90
2017-12-25T01:53:18.962Z,8.90
2017-12-25T01:55:47.750Z,8.90
2017-12-25T02:01:31.223Z,8.80
2017-12-25T02:04:00.019Z,8.80
2017-12-25T02:09:34.362Z,8.80
2017-12-25T02:12:03.131Z,8.80
2017-12-25T02:14:32.719Z,8.70
2017-12-25T02:17:01.058Z,8.70
2017-12-25T02:19:29.309Z,8.60
2017-12-25T02:21:58.309Z,8.60
2017-12-25T02:24:26.570Z,8.50
2017-12-25T02:26:55.591Z,8.60
2017-12-25T02:29:23.826Z,8.60
2017-12-25T02:31:52.089Z,8.60
2017-12-25T02:34:20.333Z,8.60
2017-12-25T02:36:48.649Z,8.60
2017-12-25T02:39:16.915Z,8.60
2017-12-25T02:41:45.232Z,8.60
2017-12-25T02:44:13.449Z,8.60
2017-12-25T02:46:41.753Z,8.60
2017-12-25T02:49:10.046Z,8.70
2017-12-25T02:51:38.310Z,8.60
2017-12-25T02:54:06.558Z,8.60
2017-12-25T02:56:35.576Z,8.40
2017-12-25T02:59:03.825Z,8.40
2017-12-25T03:01:32.107Z,8.50
2017-12-25T03:04:00.338Z,8.50
2017-12-25T03:06:28.603Z,8.50
2017-12-25T03:08:56.841Z,8.40
2017-12-25T03:11:25.870Z,8.40
2017-12-25T03:13:54.142Z,8.30
2017-12-25T03:16:23.317Z,8.30
2017-12-25T03:18:52.472Z,8.30
2017-12-25T03:21:20.750Z,8.30
2017-12-25T03:23:48.993Z,8.30
2017-12-25T03:26:18.017Z,8.30
2017-12-25T03:28:46.270Z,8.20
2017-12-25T03:31:15.311Z,8.20
2017-12-25T03:33:43.549Z,8.20
2017-12-25T03:36:12.572Z,8.20
2017-12-25T03:38:40.831Z,8.20
2017-12-25T03:41:09.842Z,8.20
2017-12-25T03:43:38.145Z,8.20
2017-12-25T03:46:06.385Z,8.10
2017-12-25T03:48:35.423Z,8.10
2017-12-25T03:51:03.668Z,8.10
2017-12-25T03:53:32.802Z,8.00
2017-12-25T03:56:01.225Z,8.00
2017-12-25T03:58:30.632Z,8.00
2017-12-25T04:00:59.220Z,8.00
2017-12-25T04:03:27.542Z,8.00
2017-12-25T04:05:55.843Z,8.00
2017-12-25T04:08:24.137Z,8.00
2017-12-25T04:10:52.374Z,8.00
2017-12-25T04:13:21.413Z,8.00
2017-12-25T04:15:49.655Z,8.00
2017-12-25T04:18:18.787Z,8.00
2017-12-25T04:20:47.036Z,8.00
2017-12-25T04:23:16.070Z,8.00
2017-12-25T04:25:44.301Z,8.00
2017-12-25T04:28:13.338Z,8.00
2017-12-25T04:30:41.625Z,8.00
2017-12-25T04:33:09.889Z,8.00
2017-12-25T04:35:38.133Z,7.90
2017-12-25T04:38:07.188Z,7.90
2017-12-25T04:40:35.432Z,7.90
2017-12-25T04:43:04.455Z,8.00
2017-12-25T04:45:32.805Z,8.00
2017-12-25T04:48:01.856Z,7.90
2017-12-25T04:50:30.124Z,7.90
2017-12-25T04:52:58.368Z,7.90
2017-12-25T04:55:27.402Z,7.90
2017-12-25T04:57:55.643Z,7.80
2017-12-25T05:00:24.674Z,7.80
2017-12-25T05:02:52.926Z,7.80
2017-12-25T05:05:21.954Z,7.80
2017-12-25T05:07:50.200Z,7.80
2017-12-25T05:10:19.230Z,7.80
2017-12-25T05:12:47.474Z,7.80
2017-12-25T05:15:16.505Z,7.80
2017-12-25T05:17:44.748Z,7.80
2017-12-25T05:20:13.775Z,7.80
2017-12-25T05:22:42.005Z,7.70
2017-12-25T05:25:10.262Z,7.70
2017-12-25T05:27:38.507Z,7.80
2017-12-25T05:30:06.783Z,7.70
2017-12-25T05:32:35.022Z,7.80
2017-12-25T05:35:03.274Z,7.70
2017-12-25T05:37:31.550Z,7.70
2017-12-25T05:39:59.810Z,7.70
2017-12-25T05:42:28.052Z,7.70
2017-12-25T05:44:57.078Z,7.60
2017-12-25T05:47:25.374Z,7.60
2017-12-25T05:49:53.628Z,7.70
2017-12-25T05:52:22.644Z,7.60
2017-12-25T05:54:50.895Z,7.60
2017-12-25T05:57:19.927Z,7.60
2017-12-25T05:59:48.243Z,7.60
2017-12-25T06:02:16.530Z,7.60
2017-12-25T06:04:44.794Z,7.60
2017-12-25T06:07:13.067Z,7.60
2017-12-25T06:09:41.308Z,7.60
2017-12-25T06:12:10.336Z,7.60
2017-12-25T06:14:38.582Z,7.50
2017-12-25T06:17:07.599Z,7.50
2017-12-25T06:19:35.842Z,7.40
2017-12-25T06:22:04.106Z,7.40
2017-12-25T06:24:32.367Z,7.40
2017-12-25T06:27:01.249Z,7.40
2017-12-25T06:29:29.546Z,7.40
2017-12-25T06:31:58.554Z,7.50
2017-12-25T06:34:26.802Z,7.50
2017-12-25T06:36:55.057Z,7.50
2017-12-25T06:39:24.063Z,7.40
2017-12-25T06:41:53.086Z,7.40
2017-12-25T06:44:21.347Z,7.40
2017-12-25T06:46:50.475Z,7.50
2017-12-25T06:49:19.552Z,7.50
2017-12-25T06:51:47.821Z,7.40
2017-12-25T06:54:16.870Z,7.40
2017-12-25T06:56:45.146Z,7.40
2017-12-25T06:59:13.445Z,7.30
2017-12-25T07:01:41.806Z,7.40
2017-12-25T07:04:10.074Z,7.30
2017-12-25T07:06:38.402Z,7.30
2017-12-25T07:09:06.642Z,7.30
2017-12-25T07:11:34.925Z,7.30
2017-12-25T07:14:03.207Z,7.30
2017-12-25T07:16:31.455Z,7.30
2017-12-25T07:19:00.476Z,7.30
2017-12-25T07:21:28.722Z,7.20
2017-12-25T07:23:56.993Z,7.20
2017-12-25T07:26:25.250Z,7.10
2017-12-25T07:28:53.635Z,7.10
2017-12-25T07:31:21.907Z,7.10
2017-12-25T07:33:51.074Z,7.10
2017-12-25T07:36:20.079Z,7.00
2017-12-25T07:38:49.144Z,7.00
2017-12-25T07:41:17.365Z,7.00
2017-12-25T07:43:46.494Z,7.00
2017-12-25T07:46:14.754Z,7.00
2017-12-25T07:48:43.884Z,7.00
2017-12-25T07:51:12.171Z,7.00
2017-12-25T07:53:40.414Z,7.00
2017-12-25T07:56:08.999Z,7.00
2017-12-25T07:58:38.469Z,6.90
2017-12-25T08:01:06.727Z,6.90
2017-12-25T08:03:34.982Z,7.00
2017-12-25T08:06:03.227Z,6.90
2017-12-25T08:08:32.250Z,7.00
2017-12-25T08:11:00.560Z,6.90
2017-12-25T08:13:28.803Z,6.90
2017-12-25T08:15:57.939Z,6.80
2017-12-25T08:18:26.219Z,6.80
2017-12-25T08:20:54.478Z,6.70
2017-12-25T08:23:22.794Z,6.60
2017-12-25T08:25:51.046Z,6.70
2017-12-25T08:28:19.357Z,6.70
2017-12-25T08:30:47.626Z,6.70
2017-12-25T08:33:15.883Z,6.60
2017-12-25T08:35:45.023Z,6.60
2017-12-25T08:38:13.263Z,6.60
2017-12-25T08:40:42.288Z,6.60
2017-12-25T08:43:10.535Z,6.50
2017-12-25T08:45:39.561Z,6.60
2017-12-25T08:48:07.799Z,6.60
2017-12-25T08:50:36.066Z,6.60
2017-12-25T08:53:04.316Z,6.60
2017-12-25T08:55:32.713Z,6.60
2017-12-25T08:58:01.119Z,6.50
2017-12-25T09:00:29.413Z,6.50
2017-12-25T09:02:57.655Z,6.50
2017-12-25T09:05:25.917Z,6.60
2017-12-25T09:07:54.223Z,6.50
2017-12-25T09:10:22.478Z,6.60
2017-12-25T09:12:50.719Z,6.60
2017-12-25T09:15:19.059Z,6.60
2017-12-25T09:17:47.335Z,6.60
2017-12-25T09:20:15.627Z,6.60
2017-12-25T09:22:43.909Z,6.60
2017-12-25T09:25:12.201Z,6.60
2017-12-25T09:27:40.475Z,6.60
2017-12-25T09:30:08.747Z,6.50
2017-12-25T09:32:37.037Z,6.50
2017-12-25T09:35:05.279Z,6.50
2017-12-25T09:37:33.551Z,6.50
2017-12-25T09:40:02.598Z,6.50
2017-12-25T09:42:30.871Z,6.50
2017-12-25T09:44:59.184Z,6.40
2017-12-25T09:47:27.422Z,6.40
2017-12-25T09:49:55.672Z,6.40
2017-12-25T09:52:24.690Z,6.40
2017-12-25T09:54:53.228Z,6.40
2017-12-25T09:57:22.048Z,6.50
2017-12-25T09:59:51.210Z,6.60
2017-12-25T10:02:20.303Z,6.60
2017-12-25T10:04:48.543Z,6.50
2017-12-25T10:07:17.569Z,6.40
2017-12-25T10:09:45.814Z,6.40
2017-12-25T10:12:14.849Z,6.40
2017-12-25T10:14:43.127Z,6.40
2017-12-25T10:17:11.387Z,6.50
2017-12-25T10:19:39.634Z,6.50
2017-12-25T10:22:07.880Z,6.50
2017-12-25T10:24:36.116Z,6.40
2017-12-25T10:27:05.147Z,6.40
2017-12-25T10:29:33.395Z,6.40
2017-12-25T10:32:02.402Z,6.40
2017-12-25T10:34:30.680Z,6.40
2017-12-25T10:36:59.675Z,6.50
2017-12-25T10:39:27.952Z,6.40
2017-12-25T10:41:56.975Z,6.50
2017-12-25T10:44:25.247Z,6.50
2017-12-25T10:46:53.472Z,6.50
2017-12-25T10:49:21.731Z,6.50
2017-12-25T10:51:49.975Z,6.50
2017-12-25T10:54:18.235Z,6.50
2017-12-25T10:56:46.562Z,6.40
2017-12-25T10:59:14.840Z,6.40
2017-12-25T11:01:43.082Z,6.40
2017-12-25T11:04:12.094Z,6.40
2017-12-25T11:06:41.107Z,6.40
2017-12-25T11:09:09.359Z,6.40
2017-12-25T11:11:38.404Z,6.50
2017-12-25T11:14:06.675Z,6.50
2017-12-25T11:16:34.919Z,6.50
2017-12-25T11:19:03.176Z,6.50
2017-12-25T11:21:31.423Z,6.40
2017-12-25T11:23:59.691Z,6.40
2017-12-25T11:26:27.997Z,6.40
2017-12-25T11:28:56.266Z,6.40
2017-12-25T11:31:24.510Z,6.40
2017-12-25T11:33:53.658Z,6.50
2017-12-25T11:36:21.902Z,6.50
2017-12-25T11:38:50.908Z,6.60
2017-12-25T11:41:19.927Z,6.60
2017-12-25T11:43:48.177Z,6.60
2017-12-25T11:46:17.198Z,6.60
2017-12-25T11:48:45.442Z,6.50
2017-12-25T11:51:13.716Z,6.60
2017-12-25T11:53:41.961Z,6.70
2017-12-25T11:56:10.222Z,6.60
2017-12-25T11:58:38.463Z,6.60
2017-12-25T12:01:06.728Z,6.60
2017-12-25T12:03:34.970Z,6.60
2017-12-25T12:06:03.273Z,6.50
2017-12-25T12:08:31.521Z,6.60
2017-12-25T12:11:00.542Z,6.60
2017-12-25T12:13:28.865Z,6.50
2017-12-25T12:15:57.098Z,6.60
2017-12-25T12:18:25.352Z,6.50
2017-12-25T12:20:54.382Z,6.50
2017-12-25T12:23:22.706Z,6.50
2017-12-25T12:25:50.951Z,6.50
2017-12-25T12:28:19.275Z,6.40
2017-12-25T12:30:47.550Z,6.40
2017-12-25T12:33:15.893Z,6.40
2017-12-25T12:35:44.164Z,6.40
2017-12-25T12:38:12.391Z,6.40
2017-12-25T12:40:40.644Z,6.40
2017-12-25T12:43:08.885Z,6.30
2017-12-25T12:45:37.890Z,6.20
2017-12-25T12:48:06.642Z,6.20
2017-12-25T12:50:34.879Z,6.20
2017-12-25T12:53:03.181Z,6.40
2017-12-25T12:55:31.694Z,6.30
2017-12-25T12:58:00.621Z,6.30
2017-12-25T13:00:28.906Z,6.40
2017-12-25T13:02:57.158Z,6.50
2017-12-25T13:05:25.398Z,6.50
2017-12-25T13:07:53.663Z,6.50
2017-12-25T13:10:21.955Z,6.50
2017-12-25T13:12:50.238Z,6.50
2017-12-25T13:15:18.488Z,6.50
2017-12-25T13:17:47.517Z,6.40
2017-12-25T13:20:15.816Z,6.40
2017-12-25T13:22:44.099Z,6.40
2017-12-25T13:25:12.339Z,6.40
2017-12-25T13:27:40.584Z,6.40
2017-12-25T13:30:08.927Z,6.30
2017-12-25T13:32:37.192Z,6.40
2017-12-25T13:35:05.438Z,6.40
2017-12-25T13:37:33.778Z,6.40
2017-12-25T13:40:02.031Z,6.40
2017-12-25T13:42:30.294Z,6.40
2017-12-25T13:44:59.334Z,6.50
2017-12-25T13:47:27.596Z,6.50
2017-12-25T13:49:55.842Z,6.50
2017-12-25T13:52:24.167Z,6.50
2017-12-25T13:54:52.407Z,6.40
2017-12-25T13:57:21.468Z,6.40
2017-12-25T13:59:49.712Z,6.40
2017-12-25T14:02:17.960Z,6.40
2017-12-25T14:04:46.241Z,6.50
2017-12-25T14:07:14.598Z,6.40
2017-12-25T14:09:42.862Z,6.50
2017-12-25T14:12:11.139Z,6.40
2017-12-25T14:14:39.403Z,6.40
2017-12-25T14:17:07.698Z,6.40
2017-12-25T14:19:35.966Z,6.40
2017-12-25T14:22:04.213Z,6.30
2017-12-25T14:24:32.490Z,6.20
2017-12-25T14:27:00.738Z,6.30
2017-12-25T14:29:28.995Z,6.20
2017-12-25T14:31:58.839Z,6.10
2017-12-25T14:34:27.099Z,6.10
2017-12-25T14:36:55.357Z,6.00
2017-12-25T14:39:24.390Z,5.90
2017-12-25T14:41:52.710Z,5.80
2017-12-25T14:44:20.971Z,5.90
2017-12-25T14:46:49.212Z,5.90
2017-12-25T14:49:18.521Z,5.90
2017-12-25T14:51:46.772Z,5.90
2017-12-25T14:54:15.823Z,5.90
2017-12-25T14:56:44.079Z,5.90
2017-12-25T14:59:12.360Z,5.90
2017-12-25T15:01:40.611Z,5.90
2017-12-25T15:04:08.963Z,5.90
2017-12-25T15:06:37.222Z,5.90
2017-12-25T15:09:05.479Z,5.90
2017-12-25T15:11:33.791Z,5.90
2017-12-25T15:14:02.030Z,5.80
2017-12-25T15:16:31.061Z,5.80
2017-12-25T15:18:59.359Z,5.70
2017-12-25T15:21:27.620Z,5.80
2017-12-25T15:23:55.876Z,5.80
2017-12-25T15:26:24.914Z,5.70
2017-12-25T15:28:53.168Z,5.70
2017-12-25T15:31:21.438Z,5.70
2017-12-25T15:33:50.451Z,5.80
2017-12-25T15:36:18.726Z,5.70
2017-12-25T15:38:46.970Z,5.70
2017-12-25T15:41:15.261Z,5.60
2017-12-25T15:43:43.498Z,5.60
2017-12-25T15:46:11.868Z,5.70
2017-12-25T15:48:40.118Z,5.70
2017-12-25T15:51:09.387Z,5.70
2017-12-25T15:53:37.627Z,5.70
2017-12-25T15:56:05.928Z,5.70
2017-12-25T15:58:34.173Z,5.70
2017-12-25T16:01:02.442Z,5.70
2017-12-25T16:03:31.521Z,5.70
2017-12-25T16:06:00.409Z,5.70
2017-12-25T16:08:28.772Z,5.70
2017-12-25T16:10:57.038Z,5.80
2017-12-25T16:13:25.301Z,5.80
2017-12-25T16:15:53.562Z,5.70
2017-12-25T16:18:22.706Z,5.70
2017-12-25T16:20:50.951Z,5.70
2017-12-25T16:23:20.076Z,5.70
2017-12-25T16:25:48.338Z,5.70
2017-12-25T16:28:16.610Z,5.70
2017-12-25T16:30:45.639Z,5.60
2017-12-25T16:33:13.911Z,5.60
2017-12-25T16:35:42.175Z,5.60
2017-12-25T16:38:11.313Z,5.60
2017-12-25T16:40:39.584Z,5.60
2017-12-25T16:43:07.878Z,5.60
2017-12-25T16:45:36.130Z,5.70
2017-12-25T16:48:04.396Z,5.80
2017-12-25T16:50:33.465Z,5.70
2017-12-25T16:53:01.725Z,5.70
2017-12-25T16:55:29.971Z,5.60
2017-12-25T16:57:58.243Z,5.60
2017-12-25T17:00:26.496Z,5.60
2017-12-25T17:02:55.238Z,5.60
2017-12-25T17:05:23.487Z,5.60
2017-12-25T17:07:52.522Z,5.60
2017-12-25T17:10:20.807Z,5.60
2017-12-25T17:12:49.079Z,5.60
2017-12-25T17:15:17.345Z,5.60
2017-12-25T17:17:45.602Z,5.60
2017-12-25T17:20:14.661Z,5.60
2017-12-25T17:22:42.903Z,5.60
2017-12-25T17:25:11.183Z,5.60
2017-12-25T17:27:39.440Z,5.50
2017-12-25T17:30:07.724Z,5.50
2017-12-25T17:32:36.655Z,5.60
2017-12-25T17:35:04.921Z,5.60
2017-12-25T17:37:33.184Z,5.60
2017-12-25T17:40:02.217Z,5.50
2017-12-25T17:42:30.515Z,5.50
2017-12-25T17:44:58.804Z,5.50
2017-12-25T17:47:27.076Z,5.40
2017-12-25T17:49:55.351Z,5.50
2017-12-25T17:52:23.672Z,5.50
2017-12-25T17:54:52.587Z,5.50
2017-12-25T17:57:20.873Z,5.40
2017-12-25T17:59:49.929Z,5.40
2017-12-25T18:02:18.208Z,5.40
2017-12-25T18:04:46.475Z,5.40
2017-12-25T18:07:14.742Z,5.40
2017-12-25T18:09:43.047Z,5.40
2017-12-25T18:12:11.302Z,5.40
2017-12-25T18:14:39.561Z,5.40
2017-12-25T18:17:08.571Z,5.50
2017-12-25T18:19:36.897Z,5.40
2017-12-25T18:22:05.147Z,5.50
2017-12-25T18:24:33.409Z,5.50
2017-12-25T18:27:02.451Z,5.50
2017-12-25T18:29:31.517Z,5.50
2017-12-25T18:31:59.800Z,5.60
2017-12-25T18:34:28.115Z,5.60
2017-12-25T18:36:56.391Z,5.60
2017-12-25T18:39:24.677Z,5.60
2017-12-25T18:41:53.434Z,5.50
2017-12-25T18:44:21.751Z,5.60
2017-12-25T18:46:50.095Z,5.60
2017-12-25T18:49:19.111Z,5.60
2017-12-25T18:51:47.399Z,5.60
2017-12-25T18:54:15.828Z,5.70
2017-12-25T18:56:45.243Z,5.60
2017-12-25T18:59:14.278Z,5.60
2017-12-25T19:01:42.534Z,5.60
2017-12-25T19:04:11.550Z,5.60
2017-12-25T19:06:39.858Z,5.60
2017-12-25T19:09:08.112Z,5.70
2017-12-25T19:11:36.386Z,5.70
2017-12-25T19:14:05.409Z,5.70
2017-12-25T19:16:33.662Z,5.70
2017-12-25T19:19:02.692Z,5.60
2017-12-25T19:21:31.832Z,5.60
2017-12-25T19:24:00.056Z,5.60
2017-12-25T19:26:28.323Z,5.60
2017-12-25T19:28:57.366Z,5.60
2017-12-25T19:31:25.642Z,5.60
2017-12-25T19:33:53.895Z,5.60
2017-12-25T19:36:22.207Z,5.50
2017-12-25T19:38:50.459Z,5.50
2017-12-25T19:41:18.772Z,5.40
2017-12-25T19:43:47.042Z,5.50
2017-12-25T19:46:15.300Z,5.40
2017-12-25T19:48:44.360Z,5.30
2017-12-25T19:51:12.624Z,5.30
2017-12-25T19:53:40.894Z,5.30
2017-12-25T19:56:09.506Z,5.30
2017-12-25T19:58:39.130Z,5.30
2017-12-25T20:01:07.927Z,5.30
2017-12-25T20:03:36.289Z,5.30
2017-12-25T20:06:04.546Z,5.30
2017-12-25T20:08:32.842Z,5.20
2017-12-25T20:11:01.115Z,5.10
2017-12-25T20:13:29.390Z,5.00
2017-12-25T20:15:57.639Z,5.00
2017-12-25T20:18:26.786Z,5.00
2017-12-25T20:20:55.055Z,5.10
2017-12-25T20:23:23.338Z,5.00
2017-12-25T20:25:51.628Z,4.90
2017-12-25T20:28:19.898Z,4.90
2017-12-25T20:30:48.143Z,4.90
2017-12-25T20:33:16.435Z,4.90
2017-12-25T20:35:44.686Z,4.90
2017-12-25T20:38:12.960Z,4.90
2017-12-25T20:40:41.202Z,4.80
2017-12-25T20:43:09.471Z,4.90
2017-12-25T20:45:37.742Z,4.80
2017-12-25T20:48:06.063Z,4.80
2017-12-25T20:50:34.330Z,4.80
2017-12-25T20:53:02.585Z,4.70
2017-12-25T20:55:30.870Z,4.80
2017-12-25T20:57:59.127Z,4.80
2017-12-25T21:00:27.442Z,4.70
2017-12-25T21:02:55.690Z,4.60
2017-12-25T21:05:24.729Z,4.60
2017-12-25T21:07:53.022Z,4.60
2017-12-25T21:10:21.299Z,4.50
2017-12-25T21:12:49.563Z,4.60
2017-12-25T21:15:17.882Z,4.60
2017-12-25T21:17:46.148Z,4.50
2017-12-25T21:20:14.439Z,4.50
2017-12-25T21:22:42.747Z,4.40
2017-12-25T21:25:10.974Z,4.40
2017-12-25T21:27:39.233Z,4.50
2017-12-25T21:30:08.266Z,4.40
2017-12-25T21:32:36.955Z,4.40
2017-12-25T21:35:05.224Z,4.40
2017-12-25T21:37:33.491Z,4.40
2017-12-25T21:40:02.573Z,4.30
2017-12-25T21:42:31.595Z,4.30
2017-12-25T21:44:59.874Z,4.30
2017-12-25T21:47:28.130Z,4.20
2017-12-25T21:49:56.412Z,4.30
2017-12-25T21:52:24.674Z,4.30
2017-12-25T21:54:52.935Z,4.20
2017-12-25T21:57:21.326Z,4.20
2017-12-25T21:59:49.614Z,4.30
2017-12-25T22:02:17.890Z,4.30
2017-12-25T22:04:46.180Z,4.30
2017-12-25T22:07:14.489Z,4.30
2017-12-25T22:09:42.828Z,4.30
2017-12-25T22:12:11.098Z,4.20
2017-12-25T22:14:39.345Z,4.20
2017-12-25T22:17:08.394Z,4.10
2017-12-25T22:19:36.673Z,4.10
2017-12-25T22:22:04.951Z,4.20
2017-12-25T22:24:33.241Z,4.10
2017-12-25T22:27:01.506Z,4.10
2017-12-25T22:29:29.802Z,4.10
2017-12-25T22:31:58.075Z,4.10
2017-12-25T22:34:26.336Z,4.10
2017-12-25T22:36:54.617Z,4.10
2017-12-25T22:39:22.878Z,4.00
2017-12-25T22:41:51.214Z,4.00
2017-12-25T22:44:19.470Z,4.00
2017-12-25T22:46:47.750Z,4.00
2017-12-25T22:49:16.050Z,4.00
2017-12-25T22:51:44.430Z,4.00
2017-12-25T22:54:12.691Z,4.00
2017-12-25T22:56:40.966Z,3.90
2017-12-25T22:59:09.266Z,3.90
2017-12-25T23:01:37.548Z,3.80
2017-12-25T23:04:05.834Z,3.80
2017-12-25T23:06:34.086Z,3.80
2017-12-25T23:09:02.367Z,3.80
2017-12-25T23:11:30.621Z,3.80
2017-12-25T23:13:59.662Z,3.90
2017-12-25T23:16:27.918Z,3.90
2017-12-25T23:18:56.946Z,3.90
2017-12-25T23:21:25.211Z,3.90
2017-12-25T23:23:53.486Z,3.90
2017-12-25T23:26:21.736Z,4.00
2017-12-25T23:28:50.011Z,3.90
2017-12-25T23:31:18.363Z,3.90
2017-12-25T23:33:46.650Z,3.90
2017-12-25T23:36:14.914Z,3.80
2017-12-25T23:38:43.191Z,3.80
2017-12-25T23:41:11.486Z,3.80
2017-12-25T23:43:39.762Z,3.70
2017-12-25T23:46:08.090Z,3.70
2017-12-25T23:48:36.334Z,3.70
2017-12-25T23:51:04.599Z,3.60
2017-12-25T23:53:32.902Z,3.70
2017-12-25T23:56:01.166Z,3.70
2017-12-25T23:58:29.441Z,3.60
